createdAt,value
2019-02-19T09:59:50.924Z,101227.14
2019-02-19T10:02:22.872Z,101228.92
2019-02-19T10:04:56.684Z,101219.23
2019-02-19T10:07:28.045Z,101210.30
2019-02-19T10:09:59.794Z,101210.23
2019-02-19T10:12:31.229Z,101210.37
2019-02-19T10:15:02.795Z,101198.69
2019-02-19T10:17:35.352Z,101200.23
2019-02-19T10:20:13.389Z,101207.89
2019-02-19T10:22:45.942Z,101201.94
2019-02-19T10:25:18.288Z,101205.39
2019-02-19T10:27:49.386Z,101202.14
2019-02-19T10:30:21.304Z,101205.12
2019-02-19T10:32:54.281Z,101198.30
2019-02-19T10:35:25.934Z,101199.69
2019-02-19T10:38:09.560Z,101206.52
2019-02-19T10:40:41.233Z,101202.19
2019-02-19T10:43:12.659Z,101190.45
2019-02-19T10:45:46.182Z,101188.25
2019-02-19T10:48:20.747Z,101190.03
2019-02-19T10:50:52.518Z,101189.41
2019-02-19T10:53:24.091Z,101199.42
2019-02-19T10:55:59.514Z,101185.63
2019-02-19T10:58:32.527Z,101182.73
2019-02-19T11:01:04.385Z,101186.33
2019-02-19T11:03:42.562Z,101181.22
2019-02-19T11:06:15.969Z,101180.13
2019-02-19T11:09:00.707Z,101178.95
2019-02-19T11:11:33.372Z,101172.97
2019-02-19T11:14:04.790Z,101171.11
2019-02-19T11:16:36.379Z,101171.38
2019-02-19T11:19:07.876Z,101172.28
2019-02-19T11:21:39.425Z,101177.34
2019-02-19T11:24:10.734Z,101178.75
2019-02-19T11:26:42.092Z,101171.48
2019-02-19T11:29:15.076Z,101166.27
2019-02-19T11:31:47.245Z,101166.37
2019-02-19T11:34:21.326Z,101169.59
2019-02-19T11:36:54.601Z,101168.50
2019-02-19T11:39:26.235Z,101167.92
2019-02-19T11:41:59.401Z,101160.62
2019-02-19T11:44:33.453Z,101156.70
2019-02-19T11:47:04.954Z,101154.97
2019-02-19T11:49:38.423Z,101158.84
2019-02-19T11:52:10.420Z,101159.24
2019-02-19T11:54:44.507Z,101152.97
2019-02-19T11:57:18.039Z,101160.53
2019-02-19T11:59:51.528Z,101160.13
2019-02-19T12:02:23.542Z,101162.19
2019-02-19T12:04:59.956Z,101161.61
2019-02-19T12:07:31.426Z,101153.01
2019-02-19T12:10:02.789Z,101161.86
2019-02-19T12:12:34.064Z,101158.67
2019-02-19T12:15:12.681Z,101166.14
2019-02-19T12:17:45.570Z,101165.67
2019-02-19T12:20:17.171Z,101158.52
2019-02-19T12:22:50.356Z,101163.77
2019-02-19T12:25:24.590Z,101148.10
2019-02-19T12:27:57.713Z,101148.16
2019-02-19T12:30:29.358Z,101143.52
2019-02-19T12:33:03.973Z,101163.13
2019-02-19T12:35:38.434Z,101168.30
2019-02-19T12:38:09.984Z,101164.58
2019-02-19T12:40:43.061Z,101171.28
2019-02-19T12:43:14.573Z,101169.42
2019-02-19T12:45:56.300Z,101166.75
2019-02-19T12:48:29.628Z,101166.87
2019-02-19T12:51:01.212Z,101168.64
2019-02-19T12:53:36.819Z,101158.96
2019-02-19T12:56:08.420Z,101158.03
2019-02-19T12:58:42.287Z,101155.52
2019-02-19T13:01:18.626Z,101153.22
2019-02-19T13:03:54.272Z,101148.78
2019-02-19T13:06:26.424Z,101147.35
2019-02-19T13:09:04.273Z,101150.29
2019-02-19T13:11:42.327Z,101145.22
2019-02-19T13:14:17.433Z,101146.06
2019-02-19T13:16:50.181Z,101151.36
2019-02-19T13:19:25.681Z,101143.85
2019-02-19T13:21:57.683Z,101143.22
2019-02-19T13:24:43.068Z,101140.34
2019-02-19T13:27:19.804Z,101137.00
2019-02-19T13:29:51.222Z,101133.67
2019-02-19T13:32:42.540Z,101139.40
2019-02-19T13:35:16.090Z,101137.73
2019-02-19T13:37:50.344Z,101136.92
2019-02-19T13:40:29.748Z,101138.73
2019-02-19T13:43:08.239Z,101137.45
2019-02-19T13:45:45.462Z,101135.92
2019-02-19T13:48:21.592Z,101133.30
2019-02-19T13:50:52.939Z,101128.27
2019-02-19T13:53:26.144Z,101124.66
2019-02-19T13:56:00.512Z,101124.22
2019-02-19T13:58:31.902Z,101123.61
2019-02-19T14:01:03.823Z,101121.75
2019-02-19T14:03:35.399Z,101124.73
2019-02-19T14:06:06.865Z,101124.41
2019-02-19T14:08:38.134Z,101119.81
2019-02-19T14:11:09.518Z,101120.44
2019-02-19T14:13:42.883Z,101113.33
2019-02-19T14:16:15.859Z,101108.00
2019-02-19T14:18:56.431Z,101108.48
2019-02-19T14:21:33.717Z,101106.25
2019-02-19T14:24:23.177Z,101101.77
2019-02-19T14:27:14.801Z,101097.80
2019-02-19T14:30:00.315Z,101098.35
2019-02-19T14:32:49.898Z,101099.70
2019-02-19T14:35:39.240Z,101094.84
2019-02-19T14:38:15.171Z,101097.09
2019-02-19T14:41:05.177Z,101102.41
2019-02-19T14:43:43.899Z,101093.94
2019-02-19T14:46:22.816Z,101093.95
2019-02-19T14:49:04.786Z,101092.73
2019-02-19T14:51:40.675Z,101097.23
2019-02-19T14:54:30.213Z,101090.55
2019-02-19T14:57:21.096Z,101096.36
2019-02-19T14:59:54.253Z,101099.48
2019-02-19T15:02:29.504Z,101091.48
2019-02-19T15:05:07.766Z,101087.50
2019-02-19T15:07:43.448Z,101090.59
2019-02-19T15:10:16.447Z,101091.55
2019-02-19T15:13:06.001Z,101084.87
2019-02-19T15:15:57.154Z,101080.84
2019-02-19T15:18:46.894Z,101083.08
2019-02-19T15:21:28.902Z,101089.35
2019-02-19T15:24:10.952Z,101087.58
2019-02-19T15:26:46.619Z,101095.14
2019-02-19T15:29:28.629Z,101094.28
2019-02-19T15:32:06.447Z,101084.47
2019-02-19T15:34:41.894Z,101091.61
2019-02-19T15:37:15.309Z,101092.03
2019-02-19T15:40:04.429Z,101090.27
2019-02-19T15:42:46.463Z,101089.38
2019-02-19T15:45:31.413Z,101093.83
2019-02-19T15:48:04.589Z,101094.27
2019-02-19T15:50:53.691Z,101090.28
2019-02-19T15:53:36.015Z,101097.82
2019-02-19T15:56:27.281Z,101100.06
2019-02-19T15:59:00.393Z,101094.72
2019-02-19T16:01:45.609Z,101098.27
2019-02-19T16:04:37.215Z,101099.61
2019-02-19T16:07:19.601Z,101097.83
2019-02-19T16:09:52.467Z,101092.03
2019-02-19T16:12:27.650Z,101097.78
2019-02-19T16:15:18.371Z,101091.12
2019-02-19T16:18:00.167Z,101088.45
2019-02-19T16:20:38.952Z,101092.02
2019-02-19T16:23:11.919Z,101082.22
2019-02-19T16:25:47.725Z,101092.02
2019-02-19T16:28:23.626Z,101089.34
2019-02-19T16:30:56.720Z,101094.65
2019-02-19T16:33:28.840Z,101090.64
2019-02-19T16:36:10.575Z,101091.97
2019-02-19T16:38:45.127Z,101096.88
2019-02-19T16:41:21.170Z,101086.61
2019-02-19T16:44:07.618Z,101089.30
2019-02-19T16:46:56.531Z,101087.52
2019-02-19T16:49:47.347Z,101086.18
2019-02-19T16:52:20.360Z,101087.50
2019-02-19T16:54:52.543Z,101089.25
2019-02-19T16:57:28.857Z,101084.41
2019-02-19T17:00:08.042Z,101087.47
2019-02-19T17:02:42.508Z,101085.27
2019-02-19T17:05:31.353Z,101086.17
2019-02-19T17:08:04.308Z,101075.48
2019-02-19T17:10:40.098Z,101071.46
2019-02-19T17:13:25.041Z,101070.17
2019-02-19T17:16:30.545Z,101073.27
2019-02-19T17:19:07.812Z,101067.00
2019-02-19T17:21:46.440Z,101061.25
2019-02-19T17:24:22.216Z,101058.59
2019-02-19T17:26:58.475Z,101059.92
2019-02-19T17:29:36.962Z,101052.38
2019-02-19T17:32:10.020Z,101041.25
2019-02-19T17:34:45.209Z,101039.88
2019-02-19T17:37:34.276Z,101031.86
2019-02-19T17:40:18.788Z,101030.89
2019-02-19T17:42:57.386Z,101027.34
2019-02-19T17:45:42.436Z,101028.28
2019-02-19T17:48:18.269Z,101023.84
2019-02-19T17:51:09.440Z,101023.78
2019-02-19T17:53:54.348Z,101024.64
2019-02-19T17:56:29.877Z,101016.17
2019-02-19T17:59:09.879Z,101014.44
2019-02-19T18:01:46.123Z,101011.34
2019-02-19T18:04:18.926Z,101014.00
2019-02-19T18:06:51.724Z,101009.13
2019-02-19T18:09:26.938Z,101010.97
2019-02-19T18:12:09.210Z,100999.00
2019-02-19T18:15:00.009Z,101002.94
2019-02-19T18:17:33.207Z,101007.31
2019-02-19T18:20:07.849Z,101001.55
2019-02-19T18:22:45.227Z,100996.66
2019-02-19T18:25:17.079Z,100981.48
2019-02-19T18:27:51.750Z,100988.64
2019-02-19T18:30:23.163Z,100991.67
2019-02-19T18:32:54.809Z,100985.41
2019-02-19T18:35:26.431Z,100985.41
2019-02-19T18:37:57.816Z,100986.13
2019-02-19T18:40:29.468Z,100987.20
2019-02-19T18:43:01.024Z,100984.05
2019-02-19T18:45:32.983Z,100982.73
2019-02-19T18:48:04.232Z,100977.86
2019-02-19T18:50:36.101Z,100977.82
2019-02-19T18:53:07.962Z,100976.45
2019-02-19T18:55:39.822Z,100970.56
2019-02-19T18:58:11.482Z,100980.78
2019-02-19T19:00:43.053Z,100964.81
2019-02-19T19:03:14.261Z,100972.35
2019-02-19T19:05:45.901Z,100963.53
2019-02-19T19:08:17.249Z,100970.58
2019-02-19T19:10:48.830Z,100960.06
2019-02-19T19:13:20.408Z,100969.91
2019-02-19T19:16:11.804Z,100967.25
2019-02-19T19:18:46.120Z,100959.64
2019-02-19T19:21:17.880Z,100962.33
2019-02-19T19:23:49.443Z,100957.48
2019-02-19T19:26:21.085Z,100956.62
2019-02-19T19:28:53.260Z,100953.53
2019-02-19T19:31:32.958Z,100954.03
2019-02-19T19:34:05.172Z,100957.05
2019-02-19T19:36:36.435Z,100954.88
2019-02-19T19:39:07.595Z,100954.78
2019-02-19T19:41:40.395Z,100950.45
2019-02-19T19:44:11.644Z,100949.54
2019-02-19T19:46:42.961Z,100941.55
2019-02-19T19:49:14.206Z,100946.41
2019-02-19T19:51:45.402Z,100933.12
2019-02-19T19:54:16.941Z,100933.12
2019-02-19T19:56:48.340Z,100938.86
2019-02-19T19:59:34.993Z,100937.94
2019-02-19T20:02:06.165Z,100929.03
2019-02-19T20:04:37.458Z,100938.70
2019-02-19T20:07:08.886Z,100928.55
2019-02-19T20:09:40.129Z,100921.94
2019-02-19T20:12:11.793Z,100922.33
2019-02-19T20:14:43.337Z,100922.33
2019-02-19T20:17:15.099Z,100921.02
2019-02-19T20:19:46.616Z,100922.41
2019-02-19T20:22:18.104Z,100917.53
2019-02-19T20:24:49.657Z,100912.53
2019-02-19T20:27:21.629Z,100918.31
2019-02-19T20:29:53.304Z,100906.67
2019-02-19T20:32:24.833Z,100916.04
2019-02-19T20:34:56.895Z,100913.22
2019-02-19T20:37:28.467Z,100913.22
2019-02-19T20:40:00.976Z,100923.78
2019-02-19T20:42:32.316Z,100909.66
2019-02-19T20:45:05.057Z,100924.28
2019-02-19T20:47:36.202Z,100921.58
2019-02-19T20:50:10.777Z,100916.26
2019-02-19T20:52:41.975Z,100923.77
2019-02-19T20:55:13.726Z,100922.84
2019-02-19T20:57:45.482Z,100919.64
2019-02-19T21:00:20.025Z,100919.66
2019-02-19T21:02:51.281Z,100918.78
2019-02-19T21:05:22.556Z,100912.34
2019-02-19T21:08:06.345Z,100915.47
2019-02-19T21:10:37.944Z,100908.92
2019-02-19T21:13:09.240Z,100909.39
2019-02-19T21:15:41.003Z,100902.57
2019-02-19T21:18:13.742Z,100905.59
2019-02-19T21:20:45.334Z,100909.13
2019-02-19T21:23:17.031Z,100908.17
2019-02-19T21:25:48.714Z,100907.31
2019-02-19T21:28:19.992Z,100900.69
2019-02-19T21:30:53.323Z,100897.02
2019-02-19T21:33:24.529Z,100897.52
2019-02-19T21:35:57.850Z,100899.73
2019-02-19T21:38:29.122Z,100888.63
2019-02-19T21:41:00.735Z,100891.70
2019-02-19T21:43:32.388Z,100894.14
2019-02-19T21:46:22.367Z,100887.03
2019-02-19T21:48:54.144Z,100887.52
2019-02-19T21:51:25.892Z,100889.78
2019-02-19T21:53:57.552Z,100891.67
2019-02-19T21:56:38.123Z,100886.06
2019-02-19T21:59:09.875Z,100888.45
2019-02-19T22:01:43.695Z,100881.34
2019-02-19T22:04:15.329Z,100889.87
2019-02-19T22:06:46.994Z,100884.31
2019-02-19T22:09:18.853Z,100887.42
2019-02-19T22:11:50.378Z,100876.27
2019-02-19T22:14:21.612Z,100875.36
2019-02-19T22:16:55.073Z,100868.10
2019-02-19T22:19:26.319Z,100872.11
2019-02-19T22:22:03.676Z,100875.19
2019-02-19T22:24:37.077Z,100868.07
2019-02-19T22:27:08.297Z,100868.58
2019-02-19T22:29:40.899Z,100863.39
2019-02-19T22:32:13.790Z,100870.31
2019-02-19T22:34:45.550Z,100862.10
2019-02-19T22:37:17.203Z,100859.03
2019-02-19T22:40:05.774Z,100859.56
2019-02-19T22:42:38.332Z,100864.64
2019-02-19T22:45:10.606Z,100856.66
2019-02-19T22:47:42.158Z,100848.36
2019-02-19T22:50:13.705Z,100850.59
2019-02-19T22:52:45.364Z,100850.63
2019-02-19T22:55:27.473Z,100851.88
2019-02-19T22:57:59.087Z,100849.98
2019-02-19T23:00:49.316Z,100844.24
2019-02-19T23:03:41.657Z,100850.97
2019-02-19T23:06:12.959Z,100849.08
2019-02-19T23:08:44.328Z,100843.78
2019-02-19T23:11:15.683Z,100842.05
2019-02-19T23:13:47.024Z,100844.62
2019-02-19T23:16:30.767Z,100838.11
2019-02-19T23:19:02.251Z,100837.09
2019-02-19T23:21:33.909Z,100827.89
2019-02-19T23:24:05.658Z,100824.83
2019-02-19T23:26:47.905Z,100822.55
2019-02-19T23:29:19.650Z,100823.46
2019-02-19T23:31:50.951Z,100822.94
2019-02-19T23:34:24.871Z,100811.81
2019-02-19T23:36:57.759Z,100824.06
2019-02-19T23:39:28.526Z,100810.22
2019-02-19T23:41:59.638Z,100821.30
2019-02-19T23:44:31.191Z,100812.45
2019-02-19T23:47:02.879Z,100813.84
2019-02-19T23:49:34.126Z,100804.75
2019-02-19T23:52:08.158Z,100795.78
2019-02-19T23:54:40.277Z,100790.86
2019-02-19T23:57:11.928Z,100785.97
2019-02-19T23:59:48.120Z,100782.30
